Airfield :
LOGIN :

Register | Disclaimer

   EN    FR    IT 

 










Legend :    VFR   Marginal VFR   IFR   Intensive IFR   Very Intensive IFR
Visi :
Ceiling :
>= 8 km
>= 3000ft
5 to 8 km
1000 to 3000 ft
1500m to 5 km
500 to 1000 ft
800 to 1500m
200 to 500 ft
< 800m
< 200 ft
Symbols :   Thunderstorms  Fog  Heavy snow  Heavy precipitations  Wind > 20 kt
SIGMETs :     Misc.  Thunderstorms  Icing  Turbulence  Mountain Waves  Volcanic Ashes






- Airport Elevation : 16 ft
- IATA code : EAS


LESO - San Sebastian Fuenterrabia

CURRENT METAR :
  • 192200Z AUTO VRB02KT 9999 SCT014 BKN019 OVC032 23/20 Q1017

EXPIRED METARs :
  • 192130Z AUTO VRB01KT 9999 SCT019 OVC032 23/21 Q1017
  • 192100Z AUTO VRB02KT 9999 BKN018 OVC030 23/20 Q1017
  • 192030Z AUTO 28003KT 250V320 9999 BKN017 OVC028 23/20 Q1017
  • 192000Z AUTO 27003KT 220V320 9999 SCT017 OVC026 24/20 Q1017
  • 191930Z 30005KT 230V010 9999 SCT015 BKN023 24/20 Q1017
  • 191900Z 30005KT 240V350 9999 SCT015 BKN023 24/21 Q1017
  • 191830Z 31004KT 230V030 9999 FEW014 BKN024 24/21 Q1017
  • 191800Z 34003KT 260V050 9999 FEW013 BKN023 25/21 Q1017
  • 191730Z 35005KT 290V050 9999 BKN023 24/20 Q1017
  • 191700Z 36006KT 320V050 9999 SCT023 25/20 Q1017

TAF TAF LESO
Valid from the 19 at 18:00 until the 20 at 18:00 UTC


191700Z 1918/2018 30006KT 9999 SCT020 TX26/2015Z TN20/2002Z



MET'MAP, your aeronautical weather chart ! - Copyright ORBIFLY December 2007 - Disclaimer

ORBIFLY MET'MAP TEAM :

Programming & Development : Alexandra Zaïnal
Original concept : Baudouin d'Aumeries
Technical & hardware support : Manuel Goepfert
Assistance : Marc-Olivier Méhu




SOURCES & CREDITS :

   NOAA